Overview Statistics Trail Chart Weather Telemetry Raw packets
 

This is the latest recevied weather packets stored in our database for station/object K6CED. If no packets are shown the sender has not sent any weather packets the latest 10 day(s).

<< 88 89 90 91 92 93 94 >>
Time Temp. Humidity Pressure Rain* Wind** Luminosity Snow
1788016490 26.11° C 60% 1016.3 hPa 0 mm - 231 W/m² -
1788016185 25.56° C 60% 1016.2 hPa 0 mm - 237 W/m² -
1788015883 25.56° C 61% 1016 hPa 0 mm - 218 W/m² -
1788015573 25.56° C 60% 1016.1 hPa 0 mm - 205 W/m² -
1788015269 26.11° C 60% 1016.1 hPa 0 mm - 193 W/m² -
1788014967 24.44° C 64% 1016 hPa 0 mm - 177 W/m² -
1788014666 24.44° C 65% 1016.2 hPa 0 mm - 163 W/m² -
1788014361 24.44° C 65% 1016.1 hPa 0 mm - 146 W/m² -
1788014057 23.89° C 65% 1015.9 hPa 0 mm - 130 W/m² -
1788013756 23.33° C 67% 1016.1 hPa 0 mm - 115 W/m² -
1788013450 23.33° C 69% 1016 hPa 0 mm - 96 W/m² -
1788013150 22.22° C 71% 1015.8 hPa 0 mm - 81 W/m² -
1788012849 22.22° C 71% 1015.8 hPa 0 mm - 38 W/m² -
1788012544 22.22° C 71% 1015.7 hPa 0 mm - 36 W/m² -
1788012240 21.67° C 71% 1015.5 hPa 0 mm - 34 W/m² -
1788011938 21.11° C 74% 1015.6 hPa 0 mm - 41 W/m² -
1788011637 20.56° C 75% 1015.7 hPa 0 mm - 28 W/m² -
1788011337 20.56° C 75% 1015.6 hPa 0 mm - 23 W/m² -
1788011032 20.56° C 75% 1015.8 hPa 0 mm - 20 W/m² -
1788010727 20.56° C 76% 1015.6 hPa 0 mm - 14 W/m² -
1788010425 20.56° C 76% 1015.4 hPa 0 mm - 10 W/m² -
1788010119 20.56° C 76% 1015.5 hPa 0 mm - 7 W/m² -
1788009815 20.56° C 76% 1015.4 hPa 0 mm - 5 W/m² -
1788009513 20.56° C 75% 1015.7 hPa 0 mm - 3 W/m² -
1788009208 20.56° C 76% 1015.8 hPa 0 mm - 1 W/m² -

* Rain latest hour (hover to see other rain measurements)
** Current wind speed in m/s (hover to see current wind gust speed)